Time;durP1;ratioP1;P1;durP2;ratioP2;P2;SDS_P1;SDS_P2;PMS_P1;PMS_P2;Temp;Humidity;BMP_temperature;BMP_pressure;BME280_temperature;BME280_humidity;BME280_pressure;Samples;Min_cycle;Max_cycle;Signal;HPM_P1;HPM_P2
2021/07/11 00:00:31;;;;;;;43.88;25.45;;;;;;;15.53;81.38;101639.03;4901352;29;20044;-84
2021/07/11 00:02:56;;;;;;;43.90;25.00;;;;;;;15.55;81.42;101637.13;4901244;29;20112;-83
2021/07/11 00:05:23;;;;;;;44.83;25.02;;;;;;;15.54;81.56;101640.75;4901448;29;20104;-84
2021/07/11 00:07:48;;;;;;;41.40;24.73;;;;;;;15.52;81.55;101647.13;4901146;29;20373;-82
2021/07/11 00:10:16;;;;;;;42.40;25.00;;;;;;;15.50;81.08;101644.53;4901065;29;20099;-84
2021/07/11 00:12:42;;;;;;;38.50;23.55;;;;;;;15.45;81.32;101658.16;4901321;29;20088;-86
2021/07/11 00:15:11;;;;;;;41.50;24.42;;;;;;;15.40;81.61;101660.25;4901102;29;20040;-84
2021/07/11 00:17:37;;;;;;;40.28;23.65;;;;;;;15.37;81.28;101664.91;4901058;29;20482;-85
2021/07/11 00:20:06;;;;;;;43.25;25.02;;;;;;;15.32;81.97;101668.72;4901087;29;20024;-85
2021/07/11 00:22:31;;;;;;;39.97;22.77;;;;;;;15.29;81.57;101670.69;4900964;29;20032;-82
2021/07/11 00:24:57;;;;;;;41.40;23.60;;;;;;;15.24;81.67;101673.63;4900707;29;20033;-84
2021/07/11 00:27:22;;;;;;;38.05;23.63;;;;;;;15.22;82.42;101666.69;4900725;29;20032;-82
2021/07/11 00:29:48;;;;;;;37.97;23.38;;;;;;;15.22;82.35;101672.84;4900542;29;20030;-82
2021/07/11 00:32:13;;;;;;;40.78;23.30;;;;;;;15.20;82.60;101680.94;4900636;29;20048;-83
2021/07/11 00:34:38;;;;;;;37.08;22.67;;;;;;;15.18;82.53;101669.53;4953694;23;20068;-88
2021/07/11 00:37:04;;;;;;;38.53;22.50;;;;;;;15.18;82.47;101666.00;4887322;29;20048;-88
2021/07/11 00:39:29;;;;;;;39.42;24.60;;;;;;;15.17;82.99;101654.47;4920030;29;20032;-85
2021/07/11 00:41:55;;;;;;;38.10;22.05;;;;;;;15.18;82.73;101650.03;4919671;29;20084;-85
2021/07/11 00:44:20;;;;;;;40.35;22.73;;;;;;;15.20;83.49;101661.47;4919630;29;20032;-84
2021/07/11 00:46:45;;;;;;;39.05;22.65;;;;;;;15.22;83.30;101664.88;4902589;29;20026;-87
2021/07/11 00:49:11;;;;;;;35.17;21.27;;;;;;;15.22;83.49;101662.19;4919400;29;20032;-86
2021/07/11 00:51:36;;;;;;;38.03;20.60;;;;;;;15.22;83.50;101661.38;4902402;29;20032;-86
2021/07/11 00:54:02;;;;;;;35.63;21.63;;;;;;;15.21;83.34;101665.81;4919337;29;20503;-85
2021/07/11 00:56:27;;;;;;;38.50;22.15;;;;;;;15.17;83.53;101664.31;4918767;29;20484;-85
2021/07/11 00:58:53;;;;;;;38.45;22.25;;;;;;;15.15;83.47;101664.41;4919348;29;20036;-85
2021/07/11 01:01:34;;;;;;;35.33;21.65;;;;;;;15.12;83.30;101671.69;4886661;29;20543;-84
2021/07/11 01:04:02;;;;;;;38.13;20.52;;;;;;;15.07;83.47;101663.97;4919452;29;20047;-85
2021/07/11 01:06:29;;;;;;;37.47;21.60;;;;;;;15.00;83.87;101674.13;4886286;29;20028;-84
2021/07/11 01:09:01;;;;;;;36.58;21.25;;;;;;;14.95;83.76;101661.09;4905008;29;20036;-84
2021/07/11 01:11:27;;;;;;;35.90;21.45;;;;;;;14.93;84.15;101657.69;4902740;29;20039;-85
2021/07/11 01:13:54;;;;;;;37.17;22.15;;;;;;;14.90;84.10;101660.53;4902295;29;20028;-84
2021/07/11 01:16:24;;;;;;;29.95;18.30;;;;;;;14.87;83.90;101657.16;4886784;29;20479;-87
2021/07/11 01:18:50;;;;;;;34.70;19.80;;;;;;;14.82;84.02;101660.09;4871218;29;20036;-85
2021/07/11 01:21:16;;;;;;;34.53;19.73;;;;;;;14.80;84.35;101657.53;4886717;29;20364;-84
2021/07/11 01:23:58;;;;;;;37.20;20.58;;;;;;;14.80;84.60;101657.53;4886821;29;20032;-86
2021/07/11 01:26:27;;;;;;;35.00;19.50;;;;;;;14.81;84.28;101659.22;4918751;29;20024;-85
2021/07/11 01:28:54;;;;;;;34.53;20.08;;;;;;;14.80;84.17;101659.31;4919789;29;20032;-86
2021/07/11 01:31:21;;;;;;;33.90;20.08;;;;;;;14.78;84.33;101659.38;4886810;29;20399;-85
2021/07/11 01:33:47;;;;;;;33.95;19.20;;;;;;;14.79;84.41;101658.47;4918537;29;20080;-85
2021/07/11 01:36:13;;;;;;;29.48;17.83;;;;;;;14.83;84.39;101664.47;4886078;29;20059;-85
2021/07/11 01:38:41;;;;;;;30.90;18.45;;;;;;;14.88;84.39;101662.41;4886020;29;20020;-85
2021/07/11 01:41:08;;;;;;;29.98;17.75;;;;;;;14.95;84.60;101668.25;4886062;29;20066;-86
2021/07/11 01:43:33;;;;;;;36.53;18.77;;;;;;;15.01;84.65;101664.34;4885816;29;20016;-86
2021/07/11 01:46:01;;;;;;;29.98;18.35;;;;;;;15.06;84.72;101673.78;4885837;29;20043;-85
2021/07/11 01:48:27;;;;;;;31.15;18.55;;;;;;;15.15;84.49;101683.03;4886189;29;20036;-85
2021/07/11 01:50:53;;;;;;;34.38;19.20;;;;;;;15.22;84.05;101680.84;4886271;29;20031;-85
2021/07/11 01:53:26;;;;;;;29.55;17.80;;;;;;;15.26;83.74;101670.88;4901411;29;20406;-85
2021/07/11 01:55:52;;;;;;;;;;;;;;;15.37;83.05;101670.25;4901409;29;20115;-85
2021/07/11 01:58:18;;;;;;;29.27;16.80;;;;;;;15.47;82.80;101667.88;4918439;29;20001;-85
2021/07/11 02:00:44;;;;;;;25.90;16.80;;;;;;;15.50;82.77;101662.38;4918670;29;20484;-86
2021/07/11 02:03:22;;;;;;;23.58;15.82;;;;;;;15.57;82.25;101661.91;4918433;29;20044;-86
2021/07/11 02:05:48;;;;;;;25.23;16.30;;;;;;;15.63;82.08;101659.78;4886127;29;20040;-84
2021/07/11 02:08:16;;;;;;;25.45;16.33;;;;;;;15.64;82.09;101656.19;4900566;29;20371;-84
2021/07/11 02:10:46;;;;;;;24.92;15.55;;;;;;;15.62;81.72;101652.75;4875486;29;20063;-86
2021/07/11 02:13:15;;;;;;;26.00;15.77;;;;;;;15.65;82.04;101647.22;4910133;29;20036;-87
2021/07/11 02:15:44;;;;;;;25.60;15.77;;;;;;;15.70;81.40;101645.13;4910751;29;20506;-85
2021/07/11 02:18:10;;;;;;;23.30;15.15;;;;;;;15.62;81.20;101647.41;4930521;29;20080;-84
2021/07/11 02:20:36;;;;;;;22.98;15.15;;;;;;;15.70;81.14;101647.81;4885907;29;20035;-86
2021/07/11 02:23:01;;;;;;;22.40;14.77;;;;;;;15.70;80.74;101639.81;4886832;29;20024;-87
2021/07/11 02:25:27;;;;;;;22.50;15.82;;;;;;;15.67;81.14;101653.31;4902819;29;20028;-87
2021/07/11 02:27:52;;;;;;;22.75;14.65;;;;;;;15.66;81.38;101651.59;4919471;29;20032;-88
2021/07/11 02:30:22;;;;;;;23.40;15.23;;;;;;;15.62;81.13;101648.28;4888417;29;20036;-86
2021/07/11 02:32:48;;;;;;;23.75;14.43;;;;;;;15.59;81.74;101648.47;4888682;29;20028;-85
2021/07/11 02:35:14;;;;;;;24.60;15.45;;;;;;;15.56;82.14;101652.16;4918003;29;20040;-83
2021/07/11 02:37:47;;;;;;;21.98;14.88;;;;;;;15.59;81.96;101651.13;4917386;29;20092;-85
2021/07/11 02:40:14;;;;;;;24.92;16.40;;;;;;;15.62;81.96;101660.75;4870407;29;20176;-85
2021/07/11 02:42:39;;;;;;;23.65;14.88;;;;;;;15.69;81.86;101659.41;4885528;29;20044;-86
2021/07/11 02:45:06;;;;;;;22.35;15.10;;;;;;;15.71;81.57;101665.50;4900691;29;20024;-85
2021/07/11 02:47:32;;;;;;;24.70;15.02;;;;;;;15.72;81.65;101659.22;4900557;29;20091;-86
2021/07/11 02:50:00;;;;;;;23.50;15.18;;;;;;;15.72;81.47;101659.22;4917637;29;20027;-85
2021/07/11 02:52:25;;;;;;;23.92;15.43;;;;;;;15.68;81.79;101658.56;4917798;29;20024;-84
2021/07/11 02:55:06;;;;;;;20.30;14.10;;;;;;;15.68;81.85;101663.03;4900770;29;20059;-85
2021/07/11 02:57:32;;;;;;;26.08;15.63;;;;;;;15.67;81.71;101670.16;4917731;29;20024;-86
2021/07/11 02:59:57;;;;;;;22.75;15.30;;;;;;;15.61;82.11;101665.22;4885042;29;20137;-85
2021/07/11 03:02:24;;;;;;;24.85;15.68;;;;;;;15.60;81.84;101663.50;4900644;29;20036;-85
2021/07/11 03:04:50;;;;;;;22.63;14.65;;;;;;;15.57;82.31;101667.22;4900412;29;20043;-85
2021/07/11 03:07:16;;;;;;;22.50;15.70;;;;;;;15.56;81.90;101667.31;4886376;29;20115;-85
2021/07/11 03:09:41;;;;;;;21.30;14.70;;;;;;;15.51;82.35;101680.06;4917267;29;20471;-85
2021/07/11 03:12:07;;;;;;;23.90;16.05;;;;;;;15.47;82.49;101676.72;4917278;29;20455;-85
2021/07/11 03:14:32;;;;;;;26.90;16.40;;;;;;;15.42;82.63;101684.16;4918322;29;20036;-86
2021/07/11 03:16:58;;;;;;;24.10;15.35;;;;;;;15.39;82.27;101673.69;4912384;29;20062;-86
2021/07/11 03:19:25;;;;;;;25.48;15.45;;;;;;;15.35;82.68;101681.00;4911410;29;20047;-86
2021/07/11 03:21:52;;;;;;;27.73;16.20;;;;;;;15.27;83.02;101681.44;4930772;29;20067;-87
2021/07/11 03:24:20;;;;;;;26.20;15.63;;;;;;;15.22;82.89;101682.69;4915118;29;20020;-86
2021/07/11 03:26:45;;;;;;;22.75;14.93;;;;;;;15.19;83.34;101681.03;4930743;29;20052;-86
2021/07/11 03:29:17;;;;;;;27.08;15.95;;;;;;;15.20;83.06;101683.59;4947263;29;20052;-86
2021/07/11 03:31:44;;;;;;;24.38;15.52;;;;;;;15.23;82.79;101676.41;4931109;29;20043;-83
2021/07/11 03:34:10;;;;;;;26.02;16.42;;;;;;;15.16;83.51;101676.75;4914790;29;20059;-85
2021/07/11 03:36:35;;;;;;;25.13;16.70;;;;;;;15.19;83.25;101665.06;4914934;29;20052;-85
2021/07/11 03:39:01;;;;;;;28.40;17.15;;;;;;;15.22;83.28;101667.53;4899492;29;20088;-85
2021/07/11 03:41:29;;;;;;;24.85;16.73;;;;;;;15.22;83.42;101667.53;4914772;29;20043;-86
2021/07/11 03:43:57;;;;;;;29.67;17.00;;;;;;;15.25;83.42;101672.69;4915176;29;20030;-86
2021/07/11 03:46:25;;;;;;;30.30;17.02;;;;;;;15.27;83.17;101670.78;4946773;29;20026;-87
2021/07/11 03:49:11;;;;;;;25.27;16.67;;;;;;;15.27;83.08;101670.78;4904019;29;20047;-87
2021/07/11 03:51:38;;;;;;;28.63;17.42;;;;;;;15.27;83.27;101673.44;4893653;29;20035;-87
2021/07/11 03:54:06;;;;;;;26.70;16.63;;;;;;;15.32;83.34;101657.19;4909020;29;20032;-87
2021/07/11 03:56:35;;;;;;;29.60;16.52;;;;;;;15.33;83.28;101653.56;4909325;29;20031;-86
2021/07/11 03:59:00;;;;;;;29.13;17.55;;;;;;;15.36;83.14;101666.69;4895041;29;20087;-86
2021/07/11 04:01:29;;;;;;;29.13;17.30;;;;;;;15.36;83.05;101663.19;4908836;29;20047;-86
2021/07/11 04:03:54;;;;;;;26.92;16.20;;;;;;;15.35;82.91;101666.78;4892099;29;20040;-85
2021/07/11 04:06:20;;;;;;;27.30;16.92;;;;;;;15.38;82.50;101666.59;4923486;29;20438;-86
2021/07/11 04:08:46;;;;;;;26.70;16.75;;;;;;;15.38;82.74;101667.47;4906813;29;20385;-85
2021/07/11 04:11:11;;;;;;;26.65;16.25;;;;;;;15.30;82.81;101659.94;4907031;29;20387;-86
2021/07/11 04:13:37;;;;;;;28.17;16.60;;;;;;;15.37;82.78;101657.78;4907572;29;20360;-86
2021/07/11 04:16:04;;;;;;;26.55;16.73;;;;;;;15.41;82.75;101650.44;4890915;29;20058;-85
2021/07/11 04:18:29;;;;;;;30.65;17.65;;;;;;;15.38;82.85;101656.81;4907398;29;20032;-88
2021/07/11 04:20:55;;;;;;;27.75;17.13;;;;;;;15.42;82.78;101654.84;4907233;29;20043;-87
2021/07/11 04:23:22;;;;;;;26.10;17.38;;;;;;;15.39;82.71;101650.53;4907005;29;20070;-86
2021/07/11 04:25:47;;;;;;;25.85;17.17;;;;;;;15.44;82.73;101648.44;4924080;29;20042;-87
2021/07/11 04:28:12;;;;;;;26.13;15.98;;;;;;;15.48;82.59;101653.59;4908658;29;20383;-86
2021/07/11 04:30:38;;;;;;;23.05;15.07;;;;;;;15.50;82.48;101659.69;4889923;29;20087;-85
2021/07/11 04:33:04;;;;;;;26.33;17.48;;;;;;;15.51;82.73;101654.28;4904406;24;20158;-85
2021/07/11 04:35:30;;;;;;;30.52;17.73;;;;;;;15.53;82.39;101656.84;4886838;29;20075;-83
2021/07/11 04:37:56;;;;;;;26.95;15.95;;;;;;;15.61;82.29;101653.72;4903195;29;20040;-83
2021/07/11 04:40:22;;;;;;;28.98;17.73;;;;;;;15.65;82.22;101664.09;4919495;29;20088;-84
2021/07/11 04:42:48;;;;;;;24.70;16.20;;;;;;;15.70;81.97;101653.13;4902335;29;20036;-82
2021/07/11 04:45:13;;;;;;;26.25;17.13;;;;;;;15.72;81.76;101651.22;4919493;29;20035;-83
2021/07/11 04:47:39;;;;;;;26.65;17.05;;;;;;;15.77;81.95;101646.47;4902349;29;20138;-83
2021/07/11 04:50:05;;;;;;;28.98;17.65;;;;;;;15.77;82.10;101643.78;4918880;29;20024;-83
2021/07/11 04:52:31;;;;;;;25.35;16.15;;;;;;;15.72;82.39;101643.22;4919143;29;20502;-83
2021/07/11 04:54:57;;;;;;;27.38;16.98;;;;;;;15.82;81.92;101651.50;4919284;29;20038;-83
2021/07/11 04:57:23;;;;;;;28.08;16.48;;;;;;;15.85;82.00;101647.78;4919453;29;20040;-82
2021/07/11 04:59:48;;;;;;;25.48;16.90;;;;;;;15.82;81.99;101649.69;4919161;29;20047;-84
2021/07/11 05:02:14;;;;;;;24.98;16.55;;;;;;;16.02;81.38;101655.63;4917886;29;20028;-84
2021/07/11 05:04:39;;;;;;;24.00;16.98;;;;;;;15.99;81.34;101658.47;4919852;29;20064;-85
2021/07/11 05:07:05;;;;;;;25.05;16.65;;;;;;;16.03;81.42;101667.16;4918659;29;20043;-83
2021/07/11 05:09:30;;;;;;;28.30;16.73;;;;;;;16.14;80.82;101664.66;4901994;29;20072;-85
2021/07/11 05:11:55;;;;;;;23.73;16.23;;;;;;;16.24;80.69;101654.25;4918814;29;20047;-82
2021/07/11 05:14:21;;;;;;;25.88;16.17;;;;;;;16.35;80.39;101653.53;4918847;29;20036;-86
2021/07/11 05:16:46;;;;;;;25.35;16.80;;;;;;;16.37;80.55;101662.31;4919094;29;20044;-83
2021/07/11 05:19:12;;;;;;;26.85;16.50;;;;;;;16.50;80.75;101662.38;4886245;29;20028;-84
2021/07/11 05:21:37;;;;;;;27.13;16.83;;;;;;;16.53;80.31;101661.31;4918224;29;20106;-85
2021/07/11 05:24:03;;;;;;;28.05;17.55;;;;;;;16.55;80.25;101651.41;4918107;29;20431;-85
2021/07/11 05:26:28;;;;;;;22.83;15.82;;;;;;;16.72;79.83;101652.97;4918169;29;20360;-82
2021/07/11 05:28:54;;;;;;;24.60;16.77;;;;;;;16.64;80.18;101652.59;4918095;29;20480;-81
2021/07/11 05:31:19;;;;;;;23.08;15.70;;;;;;;16.79;79.55;101648.91;4918226;29;20056;-84
2021/07/11 05:33:45;;;;;;;24.98;16.55;;;;;;;16.88;79.70;101652.78;4916600;29;20051;-82
2021/07/11 05:36:10;;;;;;;25.00;16.63;;;;;;;16.94;79.61;101659.53;4918145;29;20032;-82
2021/07/11 05:38:36;;;;;;;25.73;17.27;;;;;;;17.14;79.22;101657.34;4918136;29;20069;-82
2021/07/11 05:41:02;;;;;;;24.30;16.73;;;;;;;17.21;78.63;101657.78;4902606;29;20031;-81
2021/07/11 05:43:27;;;;;;;22.42;16.65;;;;;;;17.24;79.01;101661.09;4919229;29;20028;-81
2021/07/11 05:45:53;;;;;;;23.25;16.13;;;;;;;17.37;78.79;101660.28;4919459;29;20083;-82
2021/07/11 05:48:18;;;;;;;22.17;16.63;;;;;;;17.36;79.04;101670.09;4918524;29;20082;-83
2021/07/11 05:50:43;;;;;;;23.95;16.90;;;;;;;17.48;78.70;101673.72;4917711;29;20040;-81
2021/07/11 05:53:10;;;;;;;23.83;16.95;;;;;;;17.56;78.53;101676.75;4917158;29;20032;-83
2021/07/11 05:55:37;;;;;;;22.70;16.05;;;;;;;17.66;78.26;101678.78;4917327;29;20083;-83
2021/07/11 05:58:03;;;;;;;24.10;16.40;;;;;;;17.62;78.74;101680.78;4918041;29;20024;-84
2021/07/11 06:00:29;;;;;;;25.38;16.48;;;;;;;17.56;78.67;101674.06;4917784;29;20081;-83
2021/07/11 06:02:54;;;;;;;24.77;17.20;;;;;;;17.66;78.50;101673.41;4900606;29;20063;-84
2021/07/11 06:05:20;;;;;;;23.27;16.52;;;;;;;17.80;78.39;101681.34;4917784;29;20043;-84
2021/07/11 06:07:45;;;;;;;21.30;16.73;;;;;;;17.62;78.66;101677.28;4900726;29;20040;-83
2021/07/11 06:10:11;;;;;;;23.50;17.48;;;;;;;17.95;77.80;101678.50;4918008;29;20042;-83
2021/07/11 06:12:36;;;;;;;23.83;17.83;;;;;;;18.18;76.52;101679.56;4917933;29;20099;-83
2021/07/11 06:15:03;;;;;;;22.75;16.13;;;;;;;18.34;76.31;101677.63;4919002;29;20072;-85
2021/07/11 06:17:32;;;;;;;20.60;15.85;;;;;;;18.52;75.72;101686.13;4918934;29;20032;-83
2021/07/11 06:19:57;;;;;;;23.20;15.73;;;;;;;18.53;75.67;101687.81;4905513;29;20032;-85
2021/07/11 06:22:23;;;;;;;20.50;15.00;;;;;;;18.77;75.14;101689.66;4920238;29;20042;-85
2021/07/11 06:24:48;;;;;;;22.30;16.38;;;;;;;19.03;74.17;101685.00;4917584;29;20020;-85
2021/07/11 06:27:13;;;;;;;21.58;15.57;;;;;;;19.16;73.46;101690.31;4917884;29;20427;-84
2021/07/11 06:29:39;;;;;;;20.13;14.88;;;;;;;19.13;73.52;101692.38;4901919;29;20032;-85
2021/07/11 06:32:04;;;;;;;19.83;14.75;;;;;;;19.03;73.78;101689.53;4898665;29;20060;-85
2021/07/11 06:34:30;;;;;;;20.98;15.27;;;;;;;19.10;73.62;101692.59;4898660;29;20053;-84
2021/07/11 06:36:55;;;;;;;22.42;16.05;;;;;;;18.89;74.64;101702.13;4899111;29;20395;-84
2021/07/11 06:39:21;;;;;;;23.17;16.20;;;;;;;18.83;74.87;101699.06;4899004;29;20476;-84
2021/07/11 06:41:47;;;;;;;21.00;14.75;;;;;;;18.93;74.44;101700.06;4898255;29;20051;-84
2021/07/11 06:44:12;;;;;;;18.98;15.00;;;;;;;19.00;74.61;101695.13;4899801;29;20368;-85
2021/07/11 06:46:37;;;;;;;21.20;16.00;;;;;;;18.84;75.35;101714.16;4897756;29;20029;-85
2021/07/11 06:49:03;;;;;;;22.40;16.27;;;;;;;18.75;75.22;101713.03;4898570;29;20032;-84
2021/07/11 06:51:28;;;;;;;19.77;15.50;;;;;;;18.78;75.34;101719.00;4898564;29;20028;-85
2021/07/11 06:53:54;;;;;;;21.55;14.90;;;;;;;18.80;75.65;101713.53;4897957;29;20028;-83
2021/07/11 06:56:19;;;;;;;19.42;15.60;;;;;;;18.82;75.44;101708.91;4898889;29;20125;-84
2021/07/11 06:58:45;;;;;;;23.67;16.33;;;;;;;18.89;75.14;101710.16;4898729;29;20037;-83
2021/07/11 07:01:10;;;;;;;19.10;15.63;;;;;;;18.76;75.68;101715.59;4898218;29;20025;-85
2021/07/11 07:03:35;;;;;;;24.10;16.52;;;;;;;18.96;75.04;101707.00;4898015;29;20112;-81
2021/07/11 07:06:01;;;;;;;22.80;16.23;;;;;;;19.01;75.06;101703.03;4897457;29;20044;-82
2021/07/11 07:08:28;;;;;;;22.00;15.80;;;;;;;18.99;75.30;101699.59;4897550;29;20109;-85
2021/07/11 07:10:54;;;;;;;22.10;15.63;;;;;;;19.24;74.01;101705.81;4897729;29;20032;-85
2021/07/11 07:13:20;;;;;;;20.02;15.55;;;;;;;19.10;75.21;101697.97;4896192;29;20421;-86
2021/07/11 07:15:45;;;;;;;20.58;15.07;;;;;;;19.04;75.05;101692.09;4897645;29;20040;-82
2021/07/11 07:18:11;;;;;;;21.02;15.73;;;;;;;19.49;73.51;101708.41;4897604;29;20032;-84
2021/07/11 07:20:36;;;;;;;18.95;15.27;;;;;;;19.36;73.99;101704.00;4898491;29;20142;-85
2021/07/11 07:23:02;;;;;;;20.15;15.85;;;;;;;19.23;73.77;101703.25;4900242;29;20096;-84
2021/07/11 07:25:27;;;;;;;19.77;15.30;;;;;;;19.23;74.18;101709.47;4898972;29;20028;-85
2021/07/11 07:27:53;;;;;;;19.63;15.27;;;;;;;19.43;73.35;101715.13;4900838;29;20041;-85
2021/07/11 07:30:21;;;;;;;21.50;15.75;;;;;;;19.42;73.21;101721.47;4900014;29;20047;-86
2021/07/11 07:32:50;;;;;;;20.60;15.82;;;;;;;19.53;73.03;101720.63;4899471;29;20036;-85
2021/07/11 07:35:16;;;;;;;18.45;15.73;;;;;;;19.72;72.53;101722.72;4898695;29;20041;-86
2021/07/11 07:37:43;;;;;;;20.98;16.05;;;;;;;19.83;72.42;101727.25;4899702;29;20397;-86
2021/07/11 07:40:09;;;;;;;18.90;15.00;;;;;;;19.61;72.78;101731.59;4900250;29;20044;-85
2021/07/11 07:42:35;;;;;;;21.00;15.55;;;;;;;19.63;73.02;101735.03;4899606;29;20354;-86
2021/07/11 07:45:00;;;;;;;20.58;15.25;;;;;;;19.71;72.50;101734.44;4899173;29;20095;-84
2021/07/11 07:47:27;;;;;;;19.42;15.05;;;;;;;19.60;72.94;101739.78;4898800;29;20380;-86
2021/07/11 07:49:52;;;;;;;21.70;16.20;;;;;;;19.70;72.73;101724.69;4899279;29;20472;-84
2021/07/11 07:52:17;;;;;;;21.90;15.55;;;;;;;19.89;72.04;101724.06;4898116;29;20108;-85
2021/07/11 07:54:43;;;;;;;20.33;15.40;;;;;;;19.84;72.66;101730.78;4898099;29;20028;-83
2021/07/11 07:57:08;;;;;;;19.17;15.07;;;;;;;19.84;72.44;101728.09;4899936;29;20037;-88
2021/07/11 07:59:34;;;;;;;21.10;15.60;;;;;;;19.81;72.40;101731.91;4903148;29;20084;-85
2021/07/11 08:01:59;;;;;;;19.13;15.00;;;;;;;19.88;71.99;101726.88;4898520;29;20053;-84
2021/07/11 08:04:25;;;;;;;17.35;15.07;;;;;;;19.65;72.74;101727.72;4897643;29;20042;-86
2021/07/11 08:06:50;;;;;;;20.25;16.17;;;;;;;19.78;72.71;101730.28;4898907;29;20048;-83
2021/07/11 08:09:16;;;;;;;21.42;16.15;;;;;;;20.03;71.85;101727.53;4917989;29;20032;-84
2021/07/11 08:11:42;;;;;;;21.70;15.43;;;;;;;19.82;72.32;101730.91;4919226;29;20024;-84
2021/07/11 08:14:08;;;;;;;21.63;16.15;;;;;;;19.99;71.88;101734.94;4919512;29;20036;-77
2021/07/11 08:16:33;;;;;;;21.13;16.35;;;;;;;20.18;71.16;101730.81;4919481;29;20129;-76
2021/07/11 08:18:59;;;;;;;21.13;15.35;;;;;;;20.19;70.93;101735.22;4933892;29;20377;-77
2021/07/11 08:21:24;;;;;;;19.73;15.35;;;;;;;20.35;70.40;101740.19;4938194;29;20155;-78
2021/07/11 08:23:49;;;;;;;20.52;15.55;;;;;;;20.58;70.15;101742.00;4921446;29;20481;-76
2021/07/11 08:26:15;;;;;;;21.45;16.05;;;;;;;20.80;69.29;101738.41;4925409;29;20031;-76
2021/07/11 08:28:40;;;;;;;19.67;14.93;;;;;;;20.92;68.69;101733.88;4885970;29;20032;-77
2021/07/11 08:31:06;;;;;;;19.77;15.43;;;;;;;20.98;67.07;101738.72;4918420;29;20043;-75
2021/07/11 08:33:31;;;;;;;19.35;15.43;;;;;;;21.03;67.83;101738.34;4935560;23;20049;-80
2021/07/11 08:35:58;;;;;;;20.05;15.98;;;;;;;20.73;68.99;101738.03;4921657;29;20028;-80
2021/07/11 08:38:23;;;;;;;21.20;15.38;;;;;;;21.05;67.96;101749.81;4907399;29;20032;-79
2021/07/11 08:40:49;;;;;;;19.38;15.85;;;;;;;20.78;68.70;101756.47;4902678;29;20048;-80
2021/07/11 08:43:14;;;;;;;19.60;15.68;;;;;;;20.61;68.71;101755.19;4888875;29;20369;-79
2021/07/11 08:45:40;;;;;;;21.25;16.63;;;;;;;20.49;69.68;101751.66;4871981;29;20473;-80
2021/07/11 08:48:15;;;;;;;18.27;15.55;;;;;;;20.34;69.68;101754.63;4908886;29;20501;-79
2021/07/11 08:50:41;;;;;;;19.35;15.98;;;;;;;20.33;70.04;101754.75;4890778;29;20032;-80
2021/07/11 08:53:18;;;;;;;24.55;17.65;;;;;;;20.25;70.30;101764.28;4908027;29;20048;-79
2021/07/11 08:55:43;;;;;;;21.85;16.83;;;;;;;20.02;71.11;101763.44;4865381;29;20044;-79
2021/07/11 08:58:09;;;;;;;22.33;16.63;;;;;;;19.96;71.35;101761.16;4908601;29;20024;-80
2021/07/11 09:00:38;;;;;;;21.65;16.83;;;;;;;20.10;70.47;101765.50;4907764;29;20047;-79
2021/07/11 09:03:04;;;;;;;25.10;18.05;;;;;;;20.31;70.05;101762.06;4908957;29;20039;-79
2021/07/11 09:05:31;;;;;;;22.52;16.35;;;;;;;20.14;70.27;101767.81;4901754;29;20043;-80
2021/07/11 09:08:05;;;;;;;20.50;16.23;;;;;;;20.12;70.57;101771.59;4901346;29;20029;-79
2021/07/11 09:10:46;;;;;;;25.85;17.35;;;;;;;20.21;70.54;101762.78;4883468;29;20052;-79
2021/07/11 09:13:13;;;;;;;21.42;17.67;;;;;;;20.23;69.93;101765.34;4883647;29;20029;-78
2021/07/11 09:15:41;;;;;;;21.75;17.05;;;;;;;20.15;70.74;101771.34;4899609;29;20031;-80
2021/07/11 09:18:06;;;;;;;23.95;17.95;;;;;;;19.89;71.93;101774.22;4852410;29;20060;-80
2021/07/11 09:20:32;;;;;;;24.17;18.27;;;;;;;19.79;72.21;101769.59;4883012;29;20040;-80
2021/07/11 09:23:04;;;;;;;24.85;19.05;;;;;;;19.70;73.03;101772.97;4899586;29;20506;-80
2021/07/11 09:25:30;;;;;;;;;;;;;;;19.51;74.65;101779.78;4900211;29;20048;-81
2021/07/11 09:27:56;;;;;;;28.90;20.65;;;;;;;19.49;75.28;101772.78;4882730;29;19915;-81
2021/07/11 09:30:22;;;;;;;24.88;20.38;;;;;;;19.42;74.62;101772.44;4899847;29;20511;-78
2021/07/11 09:32:52;;;;;;;31.30;20.50;;;;;;;19.40;75.29;101777.91;4899481;29;20626;-78
2021/07/11 09:35:20;;;;;;;31.48;22.00;;;;;;;19.38;75.28;101784.34;4899533;29;20041;-77
2021/07/11 09:37:47;;;;;;;29.15;21.33;;;;;;;19.29;75.74;101780.53;4899186;29;20445;-80
2021/07/11 09:40:16;;;;;;;31.50;22.13;;;;;;;19.31;76.22;101792.00;4899600;29;20039;-80
2021/07/11 09:42:44;;;;;;;30.65;21.83;;;;;;;19.16;77.08;101794.88;4899177;29;20109;-80
2021/07/11 09:45:15;;;;;;;31.27;22.85;;;;;;;19.06;77.36;101796.50;4898940;29;20504;-80
2021/07/11 09:47:40;;;;;;;27.70;21.15;;;;;;;19.16;77.39;101791.31;4882251;29;20032;-81
2021/07/11 09:50:18;;;;;;;30.60;21.55;;;;;;;18.90;78.00;101783.38;4899118;29;20041;-79
2021/07/11 09:52:44;;;;;;;29.45;21.60;;;;;;;18.96;78.54;101777.56;4903715;29;20071;-82
2021/07/11 09:55:20;;;;;;;31.60;21.88;;;;;;;19.05;78.83;101776.00;4898752;29;20400;-82
2021/07/11 09:57:54;;;;;;;28.42;20.90;;;;;;;19.38;77.66;101774.47;4898848;29;20024;-76
2021/07/11 10:00:26;;;;;;;27.58;19.42;;;;;;;19.69;76.09;101765.88;4898583;29;20029;-75
2021/07/11 10:02:53;;;;;;;22.00;16.48;;;;;;;20.50;72.89;101773.03;4898952;29;20041;-77
2021/07/11 10:05:19;;;;;;;21.90;17.23;;;;;;;20.86;71.93;101772.84;4882220;29;20038;-77
2021/07/11 10:07:44;;;;;;;22.80;17.90;;;;;;;21.87;68.23;101760.03;4898806;29;20388;-77
2021/07/11 10:10:11;;;;;;;18.55;15.38;;;;;;;22.80;64.63;101774.41;4899033;29;20112;-82
2021/07/11 10:12:37;;;;;;;18.58;15.18;;;;;;;23.25;63.67;101779.22;4866262;29;20392;-74
2021/07/11 10:15:11;;;;;;;18.20;15.45;;;;;;;23.47;63.86;101771.84;4898715;29;20029;-74
2021/07/11 10:17:37;;;;;;;18.15;15.98;;;;;;;24.21;62.79;101773.94;4882913;29;20028;-74
2021/07/11 10:20:02;;;;;;;19.35;15.52;;;;;;;23.75;61.73;101773.78;4866865;29;20099;-73
2021/07/11 10:22:27;;;;;;;16.73;14.95;;;;;;;23.21;63.76;101775.13;4865836;29;20037;-75
2021/07/11 10:24:53;;;;;;;18.23;15.40;;;;;;;23.71;59.64;101769.66;4898239;29;20029;-77
2021/07/11 10:27:27;;;;;;;19.02;16.27;;;;;;;23.93;60.50;101771.16;4897983;29;20047;-76
2021/07/11 10:29:55;;;;;;;18.80;16.35;;;;;;;24.08;59.73;101776.09;4897810;29;20116;-78
2021/07/11 10:32:27;;;;;;;19.73;15.75;;;;;;;24.10;59.25;101768.72;4881480;29;20033;-78
2021/07/11 10:34:53;;;;;;;;;;;;;;;23.95;58.22;101771.03;4881498;29;20057;-76
2021/07/11 10:37:25;;;;;;;15.90;14.05;;;;;;;24.06;58.59;101767.28;4896381;29;19941;-75
2021/07/11 10:40:20;;;;;;;19.27;16.67;;;;;;;24.18;57.92;101768.81;4898120;29;20132;-76
2021/07/11 10:42:45;;;;;;;16.92;15.10;;;;;;;23.82;59.34;101769.50;4898148;29;20115;-75
2021/07/11 10:45:12;;;;;;;17.90;15.45;;;;;;;23.35;61.11;101765.72;4897841;29;20107;-75
2021/07/11 10:47:38;;;;;;;19.73;16.63;;;;;;;23.34;60.84;101766.75;4865725;29;20048;-76
2021/07/11 10:50:06;;;;;;;19.13;16.30;;;;;;;23.31;61.23;101766.16;4897671;29;20415;-75
2021/07/11 10:52:36;;;;;;;18.65;16.50;;;;;;;23.76;59.24;101762.84;4850432;29;20036;-75
2021/07/11 10:55:04;;;;;;;19.13;16.45;;;;;;;23.56;60.02;101766.59;4881398;29;20032;-76
2021/07/11 10:57:34;;;;;;;18.10;15.20;;;;;;;23.79;59.78;101759.00;4881098;29;20065;-75
2021/07/11 11:00:25;;;;;;;18.88;16.00;;;;;;;23.89;58.26;101762.50;4897534;29;20119;-76
2021/07/11 11:02:53;;;;;;;20.08;16.67;;;;;;;24.62;56.73;101768.16;4880689;29;20032;-76
2021/07/11 11:05:20;;;;;;;21.58;18.23;;;;;;;24.73;54.56;101769.78;4897176;29;20115;-76
2021/07/11 11:07:50;;;;;;;20.50;17.33;;;;;;;24.57;54.92;101766.94;4897203;29;20092;-76